Time;durP1;ratioP1;P1;durP2;ratioP2;P2;SDS_P1;SDS_P2;PMS_P1;PMS_P2;Temp;Humidity;BMP_temperature;BMP_pressure;BME280_temperature;BME280_humidity;BME280_pressure;Samples;Min_cycle;Max_cycle;Signal;HPM_P1;HPM_P2
2021/10/27 00:01:03;;;;;;;17.45;6.85;;;;;;;;;;5069683;28;20059;-95
2021/10/27 00:03:28;;;;;;;12.13;6.50;;;;;;;;;;5036444;28;20461;-94
2021/10/27 00:05:53;;;;;;;20.63;6.72;;;;;;;;;;5069222;28;20021;-94
2021/10/27 00:08:19;;;;;;;16.02;5.85;;;;;;;;;;5036263;28;20044;-95
2021/10/27 00:10:44;;;;;;;13.50;6.72;;;;;;;;;;5035982;28;20017;-94
2021/10/27 00:13:09;;;;;;;17.52;6.70;;;;;;;;;;5069453;28;20021;-95
2021/10/27 00:15:34;;;;;;;16.25;6.22;;;;;;;;;;5069335;28;20500;-94
2021/10/27 00:18:00;;;;;;;18.27;6.45;;;;;;;;;;5035806;28;20025;-94
2021/10/27 00:20:26;;;;;;;17.17;6.53;;;;;;;;;;5035859;28;20458;-94
2021/10/27 00:22:51;;;;;;;18.80;6.72;;;;;;;;;;5035858;28;20022;-94
2021/10/27 00:25:16;;;;;;;13.57;5.75;;;;;;;;;;5035984;28;20055;-95
2021/10/27 00:27:42;;;;;;;12.00;5.50;;;;;;;;;;5035755;28;19999;-94
2021/10/27 00:30:09;;;;;;;21.95;6.50;;;;;;;;;;5035116;28;20017;-94
2021/10/27 00:32:34;;;;;;;14.38;5.68;;;;;;;;;;5036014;28;20488;-94
2021/10/27 00:34:59;;;;;;;16.02;5.75;;;;;;;;;;5035673;28;20009;-95
2021/10/27 00:37:24;;;;;;;17.45;5.93;;;;;;;;;;5060490;28;20032;-94
2021/10/27 00:39:50;;;;;;;21.33;5.50;;;;;;;;;;5030372;28;20033;-95
2021/10/27 00:42:15;;;;;;;15.85;5.68;;;;;;;;;;5035818;28;20022;-94
2021/10/27 00:44:41;;;;;;;21.98;6.10;;;;;;;;;;5035537;28;20018;-94
2021/10/27 00:47:07;;;;;;;12.82;5.65;;;;;;;;;;5027325;28;20028;-94
2021/10/27 00:49:33;;;;;;;12.63;5.28;;;;;;;;;;5035458;28;20021;-94
2021/10/27 00:52:00;;;;;;;17.13;5.72;;;;;;;;;;5068715;28;20014;-94
2021/10/27 00:54:25;;;;;;;20.88;6.22;;;;;;;;;;5068709;28;20028;-94
2021/10/27 00:56:52;;;;;;;17.70;5.22;;;;;;;;;;5035337;28;20009;-94
2021/10/27 00:59:17;;;;;;;16.67;5.72;;;;;;;;;;5035101;28;20021;-94
2021/10/27 01:01:42;;;;;;;15.77;5.55;;;;;;;;;;5034927;28;20021;-94
2021/10/27 01:04:09;;;;;;;14.75;5.20;;;;;;;;;;5035072;28;20025;-94
2021/10/27 01:06:34;;;;;;;14.65;5.57;;;;;;;;;;5035092;28;20049;-94
2021/10/27 01:08:59;;;;;;;14.90;5.78;;;;;;;;;;5068636;28;20397;-94
2021/10/27 01:11:25;;;;;;;17.08;5.72;;;;;;;;;;5034982;28;20025;-94
2021/10/27 01:13:50;;;;;;;15.57;5.10;;;;;;;;;;5068351;28;20457;-94
2021/10/27 01:16:15;;;;;;;14.98;5.05;;;;;;;;;;5034952;28;20101;-94
2021/10/27 01:18:41;;;;;;;17.65;5.43;;;;;;;;;;5034927;28;20021;-94
2021/10/27 01:21:06;;;;;;;15.57;6.32;;;;;;;;;;5034727;28;20033;-94
2021/10/27 01:23:31;;;;;;;10.13;4.75;;;;;;;;;;5034712;28;20025;-95
2021/10/27 01:26:04;;;;;;;17.08;5.93;;;;;;;;;;5034838;28;20017;-94
2021/10/27 01:28:29;;;;;;;12.30;5.03;;;;;;;;;;5068094;28;20108;-95
2021/10/27 01:30:55;;;;;;;14.23;5.20;;;;;;;;;;5067606;28;20061;-94
2021/10/27 01:33:20;;;;;;;15.98;6.28;;;;;;;;;;5034814;28;20103;-94
2021/10/27 01:35:46;;;;;;;16.23;5.18;;;;;;;;;;5068055;28;20017;-94
2021/10/27 01:38:11;;;;;;;15.05;5.38;;;;;;;;;;5034646;28;20026;-95
2021/10/27 01:40:36;;;;;;;13.55;5.82;;;;;;;;;;5067946;28;20033;-94
2021/10/27 01:43:02;;;;;;;11.30;4.50;;;;;;;;;;5067810;28;20132;-94
2021/10/27 01:45:30;;;;;;;13.07;5.32;;;;;;;;;;5034376;28;20507;-94
2021/10/27 01:47:56;;;;;;;19.65;5.38;;;;;;;;;;5034540;28;20053;-94
2021/10/27 01:50:22;;;;;;;21.05;5.25;;;;;;;;;;5067664;28;20391;-95
2021/10/27 01:52:47;;;;;;;14.85;5.80;;;;;;;;;;5034079;28;20527;-94
2021/10/27 01:55:12;;;;;;;13.82;5.13;;;;;;;;;;5034215;28;20477;-94
2021/10/27 01:57:37;;;;;;;18.40;5.07;;;;;;;;;;5034207;28;20529;-94
2021/10/27 02:00:06;;;;;;;10.40;4.70;;;;;;;;;;5034288;28;20056;-94
2021/10/27 02:02:32;;;;;;;10.07;4.85;;;;;;;;;;5033958;28;20021;-94
2021/10/27 02:04:57;;;;;;;13.43;5.10;;;;;;;;;;5067393;28;20084;-94
2021/10/27 02:07:22;;;;;;;14.90;5.35;;;;;;;;;;5067299;28;20116;-95
2021/10/27 02:09:47;;;;;;;12.27;4.95;;;;;;;;;;5034020;28;20118;-94
2021/10/27 02:12:13;;;;;;;15.70;5.53;;;;;;;;;;5066381;28;20022;-94
2021/10/27 02:14:38;;;;;;;10.88;4.47;;;;;;;;;;5067074;28;20009;-94
2021/10/27 02:17:04;;;;;;;9.25;4.32;;;;;;;;;;5033512;28;20056;-95
2021/10/27 02:19:29;;;;;;;14.18;4.70;;;;;;;;;;5033810;28;20083;-94
2021/10/27 02:21:54;;;;;;;13.43;5.38;;;;;;;;;;5067161;28;20070;-94
2021/10/27 02:24:20;;;;;;;15.45;4.38;;;;;;;;;;5033912;28;20025;-94
2021/10/27 02:26:46;;;;;;;12.07;4.60;;;;;;;;;;5033626;28;20112;-94
2021/10/27 02:29:12;;;;;;;12.27;5.28;;;;;;;;;;5067030;28;20025;-94
2021/10/27 02:31:37;;;;;;;12.52;4.47;;;;;;;;;;5031187;28;20036;-94
2021/10/27 02:34:02;;;;;;;9.80;4.20;;;;;;;;;;5022137;28;20030;-94
2021/10/27 02:36:27;;;;;;;12.55;5.28;;;;;;;;;;5066782;28;20029;-94
2021/10/27 02:38:53;;;;;;;12.85;4.57;;;;;;;;;;5066963;28;20053;-94
2021/10/27 02:41:18;;;;;;;12.50;4.25;;;;;;;;;;5033327;28;20055;-94
2021/10/27 02:43:44;;;;;;;10.10;4.10;;;;;;;;;;5033441;28;20045;-94
2021/10/27 02:46:10;;;;;;;12.25;4.80;;;;;;;;;;5033411;28;20482;-94
2021/10/27 02:48:35;;;;;;;13.55;4.13;;;;;;;;;;5033343;28;20033;-94
2021/10/27 02:51:00;;;;;;;14.13;4.40;;;;;;;;;;5033402;28;20022;-95
2021/10/27 02:53:25;;;;;;;14.05;4.53;;;;;;;;;;5033355;28;20022;-94
2021/10/27 02:55:51;;;;;;;13.23;4.28;;;;;;;;;;5064510;28;20025;-94
2021/10/27 02:58:16;;;;;;;7.72;3.80;;;;;;;;;;5021246;28;20049;-94
2021/10/27 03:00:41;;;;;;;11.02;4.10;;;;;;;;;;5066383;28;20029;-94
2021/10/27 03:03:06;;;;;;;12.65;4.60;;;;;;;;;;5032957;28;20029;-94
2021/10/27 03:05:32;;;;;;;13.80;4.30;;;;;;;;;;5033159;28;20028;-94
2021/10/27 03:07:57;;;;;;;12.52;4.95;;;;;;;;;;5052169;28;20381;-94
2021/10/27 03:10:23;;;;;;;13.93;4.63;;;;;;;;;;5066451;28;20060;-94
2021/10/27 03:12:48;;;;;;;11.95;4.38;;;;;;;;;;5066176;28;20057;-94
2021/10/27 03:15:13;;;;;;;11.43;4.15;;;;;;;;;;5033073;28;20072;-94
2021/10/27 03:17:39;;;;;;;11.48;3.90;;;;;;;;;;5066372;28;20018;-95
2021/10/27 03:20:04;;;;;;;10.57;4.13;;;;;;;;;;5032609;28;20033;-95
2021/10/27 03:22:29;;;;;;;16.02;4.28;;;;;;;;;;5032893;28;20373;-94
2021/10/27 03:24:54;;;;;;;8.52;4.30;;;;;;;;;;5036819;28;20057;-94
2021/10/27 03:27:20;;;;;;;12.98;4.78;;;;;;;;;;5061950;28;20452;-94
2021/10/27 03:29:45;;;;;;;8.20;3.72;;;;;;;;;;5037052;28;20091;-94
2021/10/27 03:32:10;;;;;;;11.27;4.22;;;;;;;;;;5036975;28;20108;-94
2021/10/27 03:34:37;;;;;;;11.32;4.20;;;;;;;;;;5070402;28;20110;-93
2021/10/27 03:37:02;;;;;;;13.23;4.72;;;;;;;;;;5070115;28;20026;-94
2021/10/27 03:39:27;;;;;;;9.68;3.90;;;;;;;;;;5070133;28;20083;-94
2021/10/27 03:41:53;;;;;;;9.35;4.43;;;;;;;;;;5036727;28;20474;-94
2021/10/27 03:44:18;;;;;;;10.88;4.05;;;;;;;;;;5070114;28;20031;-94
2021/10/27 03:46:43;;;;;;;7.13;3.33;;;;;;;;;;5036616;28;20053;-94
2021/10/27 03:49:08;;;;;;;10.95;3.67;;;;;;;;;;5070075;28;20041;-94
2021/10/27 03:51:34;;;;;;;8.13;3.35;;;;;;;;;;5070043;28;20018;-94
2021/10/27 03:53:59;;;;;;;8.43;3.88;;;;;;;;;;5056581;28;20029;-94
2021/10/27 03:56:24;;;;;;;10.27;3.38;;;;;;;;;;5036489;28;20040;-94
2021/10/27 03:58:50;;;;;;;8.98;3.55;;;;;;;;;;5024115;28;20022;-94
2021/10/27 04:01:15;;;;;;;14.13;3.65;;;;;;;;;;5036305;28;20013;-94
2021/10/27 04:03:40;;;;;;;12.48;3.65;;;;;;;;;;5036391;28;20104;-93
2021/10/27 04:06:05;;;;;;;11.20;3.75;;;;;;;;;;5036194;28;20112;-94
2021/10/27 04:08:31;;;;;;;8.80;3.90;;;;;;;;;;5069695;28;20025;-94
2021/10/27 04:10:56;;;;;;;9.82;3.50;;;;;;;;;;5069354;28;20067;-93
2021/10/27 04:13:21;;;;;;;9.02;3.25;;;;;;;;;;5069449;28;20014;-94
2021/10/27 04:15:47;;;;;;;11.90;3.65;;;;;;;;;;5036214;28;20381;-94
2021/10/27 04:18:12;;;;;;;10.98;3.78;;;;;;;;;;5032086;28;20022;-94
2021/10/27 04:20:38;;;;;;;10.73;3.30;;;;;;;;;;5026087;28;20116;-94
2021/10/27 04:23:03;;;;;;;9.93;3.72;;;;;;;;;;5036009;28;20036;-94
2021/10/27 04:25:28;;;;;;;7.22;3.83;;;;;;;;;;5035666;28;20064;-95
2021/10/27 04:27:54;;;;;;;8.38;3.63;;;;;;;;;;5069352;28;20047;-94
2021/10/27 04:30:19;;;;;;;12.38;3.42;;;;;;;;;;5069125;28;20016;-93
2021/10/27 04:32:44;;;;;;;11.32;4.00;;;;;;;;;;5069300;28;20033;-95
2021/10/27 04:35:10;;;;;;;9.23;3.70;;;;;;;;;;5034610;28;20024;-94
2021/10/27 04:37:39;;;;;;;10.40;3.20;;;;;;;;;;5035849;28;20025;-94
2021/10/27 04:40:06;;;;;;;15.05;3.53;;;;;;;;;;5069003;28;20032;-94
2021/10/27 04:42:31;;;;;;;7.20;3.65;;;;;;;;;;5069191;28;20384;-94
2021/10/27 04:44:56;;;;;;;8.23;3.40;;;;;;;;;;5035620;28;20025;-94
2021/10/27 04:47:21;;;;;;;10.20;3.85;;;;;;;;;;5068971;28;20056;-94
2021/10/27 04:49:47;;;;;;;13.20;3.30;;;;;;;;;;5068922;28;20025;-94
2021/10/27 04:52:12;;;;;;;8.93;3.33;;;;;;;;;;5035449;28;20040;-94
2021/10/27 04:54:38;;;;;;;12.48;3.80;;;;;;;;;;5068698;28;20037;-94
2021/10/27 04:57:03;;;;;;;7.75;3.78;;;;;;;;;;5035588;28;20027;-94
2021/10/27 05:02:23;;;;;;;11.43;3.50;;;;;;;;;;5009368;28;20079;-94
2021/10/27 05:04:48;;;;;;;18.42;7.03;;;;;;;;;;5035000;28;20112;-93
2021/10/27 05:07:15;;;;;;;15.27;6.57;;;;;;;;;;5035268;28;20384;-94
2021/10/27 05:09:41;;;;;;;13.82;5.95;;;;;;;;;;5035327;28;20023;-93
2021/10/27 05:12:07;;;;;;;11.50;4.45;;;;;;;;;;5035315;28;20022;-94
2021/10/27 05:14:32;;;;;;;13.85;4.65;;;;;;;;;;5034982;28;20025;-94
2021/10/27 05:16:57;;;;;;;14.98;5.38;;;;;;;;;;5068408;28;20112;-94
2021/10/27 05:19:23;;;;;;;14.77;5.40;;;;;;;;;;5035158;28;20064;-94
2021/10/27 05:21:48;;;;;;;12.80;5.47;;;;;;;;;;5034802;28;20533;-94
2021/10/27 05:24:14;;;;;;;12.82;5.15;;;;;;;;;;5068303;28;20029;-94
2021/10/27 05:26:39;;;;;;;13.90;5.28;;;;;;;;;;5034709;28;20052;-93
2021/10/27 05:29:04;;;;;;;10.85;4.40;;;;;;;;;;5034806;28;20496;-93
2021/10/27 05:31:29;;;;;;;12.93;4.07;;;;;;;;;;5034294;28;20017;-93
2021/10/27 05:33:54;;;;;;;9.40;4.13;;;;;;;;;;5034626;28;20029;-93
2021/10/27 05:36:20;;;;;;;13.63;4.70;;;;;;;;;;5068051;28;20021;-94
2021/10/27 05:38:45;;;;;;;11.93;4.70;;;;;;;;;;5067843;28;20436;-94
2021/10/27 05:41:10;;;;;;;14.15;5.03;;;;;;;;;;5056660;28;20026;-94
2021/10/27 05:43:36;;;;;;;10.20;4.60;;;;;;;;;;5031248;28;20108;-92
2021/10/27 05:46:02;;;;;;;12.07;4.80;;;;;;;;;;5034252;28;20374;-94
2021/10/27 05:48:32;;;;;;;11.70;5.00;;;;;;;;;;5034012;28;20026;-93
2021/10/27 05:51:12;;;;;;;12.40;4.18;;;;;;;;;;5034319;28;20067;-93
2021/10/27 05:56:21;;;;;;;12.30;4.85;;;;;;;;;;5021982;28;20032;-93
2021/10/27 05:58:47;;;;;;;15.27;5.13;;;;;;;;;;5034165;28;20039;-94
2021/10/27 06:01:13;;;;;;;12.30;6.07;;;;;;;;;;5034057;28;20017;-93
2021/10/27 06:03:38;;;;;;;10.95;4.68;;;;;;;;;;5033991;28;20029;-93
2021/10/27 06:06:03;;;;;;;14.27;4.78;;;;;;;;;;5067063;28;20022;-93
2021/10/27 06:08:28;;;;;;;10.73;4.50;;;;;;;;;;5033518;28;20093;-93
2021/10/27 06:10:57;;;;;;;17.55;5.90;;;;;;;;;;5067068;28;20033;-93
2021/10/27 06:13:23;;;;;;;17.58;6.78;;;;;;;;;;5067079;28;20476;-93
2021/10/27 06:15:48;;;;;;;19.80;5.45;;;;;;;;;;5067098;28;20025;-93
2021/10/27 06:18:13;;;;;;;11.40;4.90;;;;;;;;;;5067012;28;20014;-94
2021/10/27 06:20:38;;;;;;;10.73;4.80;;;;;;;;;;5066871;28;20037;-94
2021/10/27 06:23:04;;;;;;;12.30;5.10;;;;;;;;;;5066972;28;20043;-93
2021/10/27 06:25:30;;;;;;;10.90;4.50;;;;;;;;;;5033661;28;20013;-94
2021/10/27 06:28:11;;;;;;;14.40;5.55;;;;;;;;;;5034526;28;20392;-94
2021/10/27 06:30:45;;;;;;;12.27;4.25;;;;;;;;;;5054918;28;20024;-94
2021/10/27 06:35:55;;;;;;;18.25;5.10;;;;;;;;;;5034469;28;20018;-93
2021/10/27 06:38:30;;;;;;;9.23;4.70;;;;;;;;;;5033338;28;20080;-94
2021/10/27 06:48:49;;;;;;;14.60;5.25;;;;;;;;;;5033488;28;20029;-93
2021/10/27 06:51:14;;;;;;;15.63;5.55;;;;;;;;;;5028788;28;20064;-94
2021/10/27 06:53:39;;;;;;;14.88;5.82;;;;;;;;;;5031440;28;20456;-93
2021/10/27 06:56:11;;;;;;;14.75;5.57;;;;;;;;;;5029996;28;20025;-93
2021/10/27 06:58:44;;;;;;;14.38;5.60;;;;;;;;;;5065841;28;20021;-93
2021/10/27 07:01:14;;;;;;;18.02;5.80;;;;;;;;;;5032939;28;20022;-93
2021/10/27 07:06:40;;;;;;;16.75;5.50;;;;;;;;;;5034120;28;20033;-93
2021/10/27 07:17:16;;;;;;;17.50;5.93;;;;;;;;;;5048157;28;20044;-94
2021/10/27 07:19:42;;;;;;;18.27;6.10;;;;;;;;;;5036083;28;20021;-93
2021/10/27 07:22:07;;;;;;;19.98;6.32;;;;;;;;;;5032268;28;20040;-93
2021/10/27 07:24:33;;;;;;;17.27;6.40;;;;;;;;;;5066068;28;20143;-93
2021/10/27 07:27:03;;;;;;;16.02;5.90;;;;;;;;;;5065732;28;20392;-93
2021/10/27 07:29:29;;;;;;;19.98;6.30;;;;;;;;;;5051199;28;20053;-93
2021/10/27 07:31:54;;;;;;;13.77;6.20;;;;;;;;;;5033387;28;20535;-93
2021/10/27 07:34:28;;;;;;;14.20;5.57;;;;;;;;;;5057454;28;20016;-93
2021/10/27 07:40:06;;;;;;;16.27;6.45;;;;;;;;;;5034007;28;20487;-93
2021/10/27 07:42:32;;;;;;;11.48;5.68;;;;;;;;;;5040180;28;20025;-93
2021/10/27 07:44:58;;;;;;;16.55;5.28;;;;;;;;;;5032546;28;20024;-92
2021/10/27 07:47:23;;;;;;;13.77;5.32;;;;;;;;;;5065913;28;20057;-93
2021/10/27 07:49:48;;;;;;;15.32;5.47;;;;;;;;;;5033475;28;20032;-93
2021/10/27 07:52:14;;;;;;;20.25;5.38;;;;;;;;;;5032208;28;20096;-93
2021/10/27 07:54:39;;;;;;;13.88;6.53;;;;;;;;;;5065795;28;20024;-93
2021/10/27 07:57:06;;;;;;;14.85;5.88;;;;;;;;;;5065607;28;20067;-93
2021/10/27 07:59:31;;;;;;;14.23;5.82;;;;;;;;;;5033324;28;20030;-93
2021/10/27 08:01:57;;;;;;;16.35;5.85;;;;;;;;;;5032223;28;20033;-92
2021/10/27 08:04:23;;;;;;;12.35;5.82;;;;;;;;;;5033823;28;20075;-95
2021/10/27 08:06:48;;;;;;;17.25;5.95;;;;;;;;;;5065429;28;20029;-94
2021/10/27 08:09:14;;;;;;;16.63;6.75;;;;;;;;;;5034076;28;20013;-93
2021/10/27 08:11:40;;;;;;;14.82;6.38;;;;;;;;;;5059621;28;20024;-93
2021/10/27 08:14:05;;;;;;;13.43;6.90;;;;;;;;;;5036130;28;20025;-93
2021/10/27 08:16:30;;;;;;;17.20;7.00;;;;;;;;;;5069377;28;20045;-93
2021/10/27 08:18:56;;;;;;;15.15;6.18;;;;;;;;;;5069389;28;20024;-93
2021/10/27 08:21:21;;;;;;;11.60;6.13;;;;;;;;;;5036836;28;20025;-93
2021/10/27 08:23:47;;;;;;;18.08;5.80;;;;;;;;;;5035900;28;20052;-93
2021/10/27 08:26:17;;;;;;;16.67;6.35;;;;;;;;;;5067496;28;20037;-93
2021/10/27 08:28:51;;;;;;;18.05;6.93;;;;;;;;;;5022580;28;20476;-93
2021/10/27 08:34:04;;;;;;;15.88;7.05;;;;;;;;;;5023378;28;20014;-94
2021/10/27 08:36:29;;;;;;;16.90;7.00;;;;;;;;;;5035755;28;20385;-93
2021/10/27 08:38:55;;;;;;;17.92;7.07;;;;;;;;;;5035561;28;20029;-93
2021/10/27 08:41:20;;;;;;;14.55;6.45;;;;;;;;;;5068860;28;20029;-93
2021/10/27 08:43:45;;;;;;;17.25;8.30;;;;;;;;;;5035374;28;20029;-93
2021/10/27 08:46:16;;;;;;;14.52;7.03;;;;;;;;;;5067559;28;20075;-93
2021/10/27 08:48:44;;;;;;;13.95;6.97;;;;;;;;;;5035390;28;20017;-94
2021/10/27 08:51:12;;;;;;;15.40;7.28;;;;;;;;;;5068369;28;20060;-93
2021/10/27 08:53:38;;;;;;;20.35;7.35;;;;;;;;;;5035405;28;20072;-93
2021/10/27 08:56:05;;;;;;;14.90;7.28;;;;;;;;;;5068483;28;20025;-92
2021/10/27 08:58:58;;;;;;;18.90;6.28;;;;;;;;;;5035251;28;20108;-93
2021/10/27 09:04:44;;;;;;;18.15;7.07;;;;;;;;;;5036332;28;20021;-93
2021/10/27 09:07:01;;;;;;;13.15;6.65;;;;;;;;;;5032913;28;20033;-93
2021/10/27 10:06:21;;;;;;;17.10;6.13;;;;;;;;;;5035175;28;20105;-93
2021/10/27 10:08:47;;;;;;;16.20;6.65;;;;;;;;;;5034039;28;20044;-93
2021/10/27 10:11:12;;;;;;;13.15;6.63;;;;;;;;;;5067111;28;20081;-93
2021/10/27 10:13:38;;;;;;;15.65;5.97;;;;;;;;;;5033830;28;20538;-93
2021/10/27 10:16:03;;;;;;;12.82;6.07;;;;;;;;;;5035136;28;20056;-93
2021/10/27 10:18:29;;;;;;;16.50;6.50;;;;;;;;;;5033662;28;20460;-93
2021/10/27 10:20:54;;;;;;;11.57;5.65;;;;;;;;;;5032720;28;20389;-93
2021/10/27 10:23:23;;;;;;;14.13;6.25;;;;;;;;;;5033619;28;20021;-93
2021/10/27 10:25:50;;;;;;;16.35;6.35;;;;;;;;;;5033313;28;20025;-93
2021/10/27 10:28:17;;;;;;;10.13;5.10;;;;;;;;;;5034105;28;20531;-93
2021/10/27 10:30:52;;;;;;;9.07;5.32;;;;;;;;;;5033201;28;20033;-93
2021/10/27 10:33:18;;;;;;;10.18;4.97;;;;;;;;;;5032374;28;20059;-93
2021/10/27 10:36:01;;;;;;;9.25;4.72;;;;;;;;;;5041363;28;20017;-93
2021/10/27 10:41:35;;;;;;;14.50;5.45;;;;;;;;;;5034987;28;20034;-95
2021/10/27 10:58:36;;;;;;;12.27;5.13;;;;;;;;;;5033085;28;20040;-93
2021/10/27 11:01:25;;;;;;;9.85;4.10;;;;;;;;;;5029757;28;20037;-93
2021/10/27 11:42:22;;;;;;;8.70;2.55;;;;;;;;;;4972971;28;20041;-93
2021/10/27 11:44:52;;;;;;;4.03;1.65;;;;;;;;;;5004331;28;20042;-93
2021/10/27 11:47:36;;;;;;;9.10;2.45;;;;;;;;;;5035707;28;20041;-93
2021/10/27 11:50:02;;;;;;;10.80;2.20;;;;;;;;;;5036530;28;20029;-93
2021/10/27 11:52:32;;;;;;;8.77;2.35;;;;;;;;;;5036646;28;20079;-93
2021/10/27 11:54:57;;;;;;;3.50;2.25;;;;;;;;;;5036293;28;20021;-93
2021/10/27 11:57:27;;;;;;;6.63;2.45;;;;;;;;;;5055468;28;20022;-93
2021/10/27 11:59:52;;;;;;;10.27;2.83;;;;;;;;;;5069746;28;20362;-93
2021/10/27 12:02:18;;;;;;;7.43;2.20;;;;;;;;;;5036412;28;20032;-92
2021/10/27 12:04:44;;;;;;;7.65;2.20;;;;;;;;;;5036469;28;20036;-93
2021/10/27 12:07:21;;;;;;;9.43;2.08;;;;;;;;;;5069404;28;20025;-93
2021/10/27 12:18:10;;;;;;;7.22;2.05;;;;;;;;;;5013824;28;20026;-93
2021/10/27 12:20:44;;;;;;;7.70;2.25;;;;;;;;;;5035606;28;20029;-93
2021/10/27 12:23:20;;;;;;;3.13;1.75;;;;;;;;;;5033113;28;20032;-93
2021/10/27 12:25:46;;;;;;;5.53;1.50;;;;;;;;;;5026347;28;20025;-93
2021/10/27 12:28:22;;;;;;;4.45;1.15;;;;;;;;;;5033492;28;20025;-93
2021/10/27 12:30:48;;;;;;;3.33;1.17;;;;;;;;;;5025526;28;20013;-93
2021/10/27 12:33:13;;;;;;;7.03;2.03;;;;;;;;;;5035620;28;20441;-94
2021/10/27 12:35:39;;;;;;;6.13;1.73;;;;;;;;;;5035690;28;20108;-93
2021/10/27 12:38:16;;;;;;;6.72;2.05;;;;;;;;;;5068942;28;20025;-93
2021/10/27 12:40:43;;;;;;;7.20;2.05;;;;;;;;;;5028949;28;20121;-93
2021/10/27 12:43:10;;;;;;;4.00;1.90;;;;;;;;;;5029022;28;20029;-93
2021/10/27 12:45:44;;;;;;;5.32;1.40;;;;;;;;;;5035520;28;20104;-93
2021/10/27 12:48:17;;;;;;;5.20;1.80;;;;;;;;;;5068362;28;20102;-93
2021/10/27 12:50:51;;;;;;;8.30;1.50;;;;;;;;;;5068595;28;20048;-93
2021/10/27 12:53:27;;;;;;;9.55;2.05;;;;;;;;;;5055795;28;20386;-93
2021/10/27 12:56:02;;;;;;;7.05;2.03;;;;;;;;;;5030321;28;20033;-94
2021/10/27 12:58:31;;;;;;;7.20;2.00;;;;;;;;;;5035293;28;20385;-93
2021/10/27 13:01:03;;;;;;;5.35;1.85;;;;;;;;;;5035005;28;20035;-93
2021/10/27 13:06:18;;;;;;;6.15;1.42;;;;;;;;;;5036482;28;19917;-93
2021/10/27 13:17:01;;;;;;;6.80;1.98;;;;;;;;;;5039819;28;20021;-94
2021/10/27 13:29:55;;;;;;;8.23;1.95;;;;;;;;;;5049727;28;20074;-93
2021/10/27 13:32:23;;;;;;;3.15;1.10;;;;;;;;;;5067829;28;20029;-94
2021/10/27 13:34:48;;;;;;;7.25;1.80;;;;;;;;;;5035504;28;20028;-93
2021/10/27 13:37:14;;;;;;;8.93;1.92;;;;;;;;;;5030339;28;20017;-93
2021/10/27 13:39:40;;;;;;;2.90;1.08;;;;;;;;;;5027602;28;20025;-94
2021/10/27 13:42:13;;;;;;;5.78;1.60;;;;;;;;;;5033438;28;20744;-94
2021/10/27 13:44:56;;;;;;;6.70;1.95;;;;;;;;;;5040909;28;20025;-93
2021/10/27 13:57:58;;;;;;;2.53;0.95;;;;;;;;;;5031188;28;20075;-93
2021/10/27 14:06:04;;;;;;;1.08;0.50;;;;;;;;;;5029638;28;20488;-93
2021/10/27 14:14:02;;;;;;;4.25;1.50;;;;;;;;;;5035390;28;20480;-93
2021/10/27 15:21:53;;;;;;;6.30;2.15;;;;;;;;;;5038605;28;20066;-92
2021/10/27 15:40:57;;;;;;;3.30;1.17;;;;;;;;;;5034131;28;20020;-93
2021/10/27 15:51:23;;;;;;;3.35;1.63;;;;;;;;;;5037096;28;20377;-93
2021/10/27 15:53:52;;;;;;;4.30;1.75;;;;;;;;;;5065691;28;20014;-93
2021/10/27 15:56:17;;;;;;;6.75;2.90;;;;;;;;;;5055465;28;20018;-93
2021/10/27 15:58:43;;;;;;;11.13;2.58;;;;;;;;;;5032819;28;20028;-93
2021/10/27 16:01:08;;;;;;;8.82;2.55;;;;;;;;;;5029002;28;20053;-93
2021/10/27 16:03:33;;;;;;;5.03;2.63;;;;;;;;;;5021978;28;20045;-93
2021/10/27 16:05:59;;;;;;;6.80;2.55;;;;;;;;;;5028355;28;20075;-92
2021/10/27 16:08:27;;;;;;;6.85;2.90;;;;;;;;;;5065890;28;20029;-93
2021/10/27 16:10:52;;;;;;;5.05;2.40;;;;;;;;;;5032567;28;20056;-93
2021/10/27 16:13:17;;;;;;;4.28;2.22;;;;;;;;;;5032151;28;20021;-93
2021/10/27 16:15:55;;;;;;;7.38;2.88;;;;;;;;;;5054246;28;20021;-94
2021/10/27 16:18:20;;;;;;;10.55;2.72;;;;;;;;;;5041240;28;20009;-93
2021/10/27 16:20:45;;;;;;;6.95;2.63;;;;;;;;;;5065595;28;20022;-93
2021/10/27 16:23:12;;;;;;;6.55;3.10;;;;;;;;;;5062780;28;20013;-93
2021/10/27 16:25:38;;;;;;;6.32;3.05;;;;;;;;;;5065965;28;20457;-93
2021/10/27 16:28:03;;;;;;;8.40;2.45;;;;;;;;;;5037096;28;20167;-94
2021/10/27 16:30:29;;;;;;;6.72;3.47;;;;;;;;;;5065300;28;20018;-93
2021/10/27 16:32:54;;;;;;;6.30;2.72;;;;;;;;;;5045837;28;20100;-93
2021/10/27 16:35:21;;;;;;;4.72;2.78;;;;;;;;;;5036297;28;20025;-93
2021/10/27 16:37:46;;;;;;;5.53;2.65;;;;;;;;;;5069287;28;20025;-93
2021/10/27 16:40:11;;;;;;;9.57;3.22;;;;;;;;;;5069168;28;20020;-93
2021/10/27 16:42:37;;;;;;;9.02;3.13;;;;;;;;;;5046439;28;20537;-93
2021/10/27 16:45:07;;;;;;;8.55;3.40;;;;;;;;;;5040180;28;20018;-93
2021/10/27 16:47:32;;;;;;;12.18;3.83;;;;;;;;;;5037132;28;20021;-93
2021/10/27 16:49:57;;;;;;;9.13;3.88;;;;;;;;;;5048824;28;20032;-93
2021/10/27 16:52:23;;;;;;;7.43;3.72;;;;;;;;;;5035361;28;20063;-93
2021/10/27 16:54:48;;;;;;;10.98;4.28;;;;;;;;;;5037191;28;20021;-93
2021/10/27 16:57:13;;;;;;;10.07;4.55;;;;;;;;;;5039854;28;20376;-94
2021/10/27 16:59:39;;;;;;;8.02;4.72;;;;;;;;;;5037804;28;20025;-93
2021/10/27 17:02:04;;;;;;;15.65;4.55;;;;;;;;;;5044898;28;20468;-93
2021/10/27 17:04:29;;;;;;;8.20;3.63;;;;;;;;;;5030570;28;20026;-92
2021/10/27 17:06:57;;;;;;;15.20;4.28;;;;;;;;;;5034666;28;20032;-93
2021/10/27 17:09:22;;;;;;;10.15;4.43;;;;;;;;;;5063481;28;20017;-93
2021/10/27 17:11:48;;;;;;;6.65;3.58;;;;;;;;;;5056426;28;20083;-93
2021/10/27 17:14:13;;;;;;;6.47;3.72;;;;;;;;;;5065792;28;20018;-93
2021/10/27 17:16:38;;;;;;;8.35;3.63;;;;;;;;;;5035618;28;20056;-93
2021/10/27 17:19:04;;;;;;;6.30;3.42;;;;;;;;;;5039757;28;20075;-93
2021/10/27 17:21:30;;;;;;;14.13;4.20;;;;;;;;;;5034259;28;20556;-91
2021/10/27 17:23:59;;;;;;;8.75;3.70;;;;;;;;;;5034710;28;20071;-92
2021/10/27 17:26:24;;;;;;;11.05;3.58;;;;;;;;;;5032368;28;20393;-92
2021/10/27 17:28:49;;;;;;;7.30;3.72;;;;;;;;;;5040029;28;20021;-92
2021/10/27 17:31:14;;;;;;;9.75;4.28;;;;;;;;;;5042005;28;20025;-93
2021/10/27 17:33:39;;;;;;;9.32;4.45;;;;;;;;;;5052825;28;20026;-92
2021/10/27 17:36:09;;;;;;;9.18;4.45;;;;;;;;;;5028173;28;20381;-92
2021/10/27 17:38:34;;;;;;;11.00;4.35;;;;;;;;;;5034135;28;20037;-92
2021/10/27 17:40:59;;;;;;;10.95;3.90;;;;;;;;;;5067483;28;20017;-92
2021/10/27 17:43:25;;;;;;;11.25;4.43;;;;;;;;;;5067292;28;20068;-93
2021/10/27 17:45:51;;;;;;;10.27;4.68;;;;;;;;;;5060985;28;20072;-92
2021/10/27 17:51:02;;;;;;;8.30;4.18;;;;;;;;;;5025809;28;20026;-92
2021/10/27 17:58:39;;;;;;;17.02;4.45;;;;;;;;;;5035421;28;20037;-92
2021/10/27 18:01:06;;;;;;;9.23;4.68;;;;;;;;;;5065989;28;20021;-93
2021/10/27 18:03:32;;;;;;;9.02;4.40;;;;;;;;;;5070197;28;20017;-92
2021/10/27 18:05:58;;;;;;;14.13;5.60;;;;;;;;;;5032061;28;20018;-92
2021/10/27 18:08:24;;;;;;;8.82;4.43;;;;;;;;;;5027955;28;20087;-92
2021/10/27 18:10:53;;;;;;;16.75;5.20;;;;;;;;;;5034939;28;20029;-92
2021/10/27 18:13:22;;;;;;;12.95;4.90;;;;;;;;;;5030250;28;20381;-92
2021/10/27 18:15:50;;;;;;;12.15;4.95;;;;;;;;;;5030640;28;20029;-92
2021/10/27 18:18:23;;;;;;;13.90;5.10;;;;;;;;;;5030152;28;20075;-93
2021/10/27 18:20:48;;;;;;;12.00;5.10;;;;;;;;;;5024955;28;20453;-92
2021/10/27 18:23:40;;;;;;;7.15;4.43;;;;;;;;;;5031029;28;20120;-92
2021/10/27 18:26:32;;;;;;;8.07;4.65;;;;;;;;;;5058295;28;20025;-92
2021/10/27 18:39:59;;;;;;;10.30;4.75;;;;;;;;;;5037542;28;20021;-92
2021/10/27 18:42:31;;;;;;;13.60;5.30;;;;;;;;;;5020481;28;20104;-92
2021/10/27 18:44:56;;;;;;;9.68;5.25;;;;;;;;;;5063274;28;20036;-92
2021/10/27 18:47:25;;;;;;;12.55;4.40;;;;;;;;;;5032800;28;20473;-92
2021/10/27 18:49:50;;;;;;;8.95;4.82;;;;;;;;;;5066176;28;20064;-92
2021/10/27 18:52:44;;;;;;;13.18;5.05;;;;;;;;;;5060717;28;20010;-93
2021/10/27 19:11:04;;;;;;;7.95;4.60;;;;;;;;;;5031970;28;20075;-91
2021/10/27 19:13:42;;;;;;;9.35;5.15;;;;;;;;;;5036291;28;20110;-92
2021/10/27 19:16:07;;;;;;;7.88;4.57;;;;;;;;;;5045108;28;20032;-91
2021/10/27 19:18:33;;;;;;;12.27;5.28;;;;;;;;;;5062123;28;20021;-93
2021/10/27 19:20:58;;;;;;;16.83;5.20;;;;;;;;;;5032531;28;20025;-92
2021/10/27 19:23:29;;;;;;;15.32;5.97;;;;;;;;;;5032329;28;20021;-91
2021/10/27 19:28:40;;;;;;;11.15;5.63;;;;;;;;;;5031983;28;20021;-91
2021/10/27 19:31:29;;;;;;;13.25;5.70;;;;;;;;;;5032133;28;20017;-92
2021/10/27 19:34:18;;;;;;;7.93;4.97;;;;;;;;;;5032097;28;20028;-91
2021/10/27 20:17:46;;;;;;;10.15;4.75;;;;;;;;;;5037011;28;20026;-92
2021/10/27 20:53:19;;;;;;;7.85;5.28;;;;;;;;;;5036948;28;20031;-89
2021/10/27 20:55:24;;;;;;;9.73;5.13;;;;;;;;;;5025135;28;20033;-89
2021/10/27 20:58:07;;;;;;;12.40;5.10;;;;;;;;;;5067756;28;20029;-89
2021/10/27 21:13:57;;;;;;;10.88;5.65;;;;;;;;;;5035569;28;20024;-90
2021/10/27 21:16:22;;;;;;;13.15;5.40;;;;;;;;;;5032214;28;21122;-89
2021/10/27 21:18:47;;;;;;;16.00;6.03;;;;;;;;;;5033618;28;20719;-89
2021/10/27 21:21:13;;;;;;;12.52;5.40;;;;;;;;;;5033805;28;20437;-90
2021/10/27 21:23:39;;;;;;;11.05;5.35;;;;;;;;;;5033518;28;20032;-89
2021/10/27 21:26:04;;;;;;;11.18;5.55;;;;;;;;;;5067447;28;20113;-89
2021/10/27 21:28:40;;;;;;;10.95;4.68;;;;;;;;;;5034613;28;20457;-89